createdAt,value
2022-10-07T00:00:57.040Z,7.52
2022-10-07T00:03:58.876Z,7.57
2022-10-07T00:07:00.608Z,7.55
2022-10-07T00:10:02.828Z,7.57
2022-10-07T00:13:04.582Z,7.54
2022-10-07T00:16:13.218Z,7.56
2022-10-07T00:19:14.987Z,7.49
2022-10-07T00:22:16.719Z,7.45
2022-10-07T00:25:18.445Z,7.43
2022-10-07T00:28:20.213Z,7.45
2022-10-07T00:31:30.393Z,7.44
2022-10-07T00:34:32.146Z,7.37
2022-10-07T00:37:34.398Z,7.36
2022-10-07T00:40:36.149Z,7.33
2022-10-07T00:43:38.468Z,7.29
2022-10-07T00:46:40.930Z,7.26
2022-10-07T00:49:51.216Z,7.25
2022-10-07T00:52:59.810Z,7.20
2022-10-07T00:56:02.940Z,7.13
2022-10-07T00:59:05.522Z,7.09
2022-10-07T01:02:08.283Z,7.08
2022-10-07T01:05:12.687Z,7.05
2022-10-07T01:08:15.742Z,6.99
2022-10-07T01:11:26.781Z,7.00
2022-10-07T01:14:52.834Z,7.02
2022-10-07T01:18:35.284Z,6.97
2022-10-07T01:21:58.779Z,6.90
2022-10-07T01:25:13.217Z,6.84
2022-10-07T01:28:41.981Z,6.86
2022-10-07T01:31:49.652Z,6.86
2022-10-07T01:34:55.302Z,6.82
2022-10-07T01:38:01.808Z,6.78
2022-10-07T01:41:16.291Z,6.76
2022-10-07T01:44:18.879Z,6.65
2022-10-07T01:47:20.949Z,6.64
2022-10-07T01:50:26.783Z,6.65
2022-10-07T01:53:34.857Z,6.56
2022-10-07T01:57:14.715Z,6.54
2022-10-07T02:00:18.207Z,6.48
2022-10-07T02:03:35.113Z,6.47
2022-10-07T02:06:58.402Z,6.47
2022-10-07T02:10:12.751Z,6.46
2022-10-07T02:13:41.377Z,-149.13
2022-10-07T02:16:53.270Z,-149.13
2022-10-07T02:19:56.571Z,-149.13
2022-10-07T02:23:02.298Z,-149.13
2022-10-07T02:26:06.830Z,-149.13
2022-10-07T02:29:12.618Z,-149.13
2022-10-07T02:32:22.270Z,-149.13
2022-10-07T02:35:38.740Z,-149.13
2022-10-07T02:38:40.860Z,-149.13
2022-10-07T02:41:55.524Z,6.13
2022-10-07T02:45:22.177Z,6.13
2022-10-07T02:48:38.670Z,6.08
2022-10-07T02:51:52.013Z,6.07
2022-10-07T02:54:59.578Z,6.04
2022-10-07T02:58:07.469Z,6.00
2022-10-07T03:01:17.494Z,6.01
2022-10-07T03:04:19.592Z,5.95
2022-10-07T03:07:23.341Z,5.90
2022-10-07T03:10:26.895Z,5.91
2022-10-07T03:13:28.945Z,5.88
2022-10-07T03:16:34.497Z,5.87
2022-10-07T03:19:37.106Z,5.86
2022-10-07T03:22:39.968Z,5.82
2022-10-07T03:25:42.604Z,5.86
2022-10-07T03:28:45.183Z,5.86
2022-10-07T03:31:47.456Z,5.87
2022-10-07T03:34:49.324Z,5.87
2022-10-07T03:37:51.376Z,5.91
2022-10-07T03:40:53.306Z,5.82
2022-10-07T03:43:57.763Z,5.79
2022-10-07T03:47:00.712Z,5.80
2022-10-07T03:50:02.879Z,5.80
2022-10-07T03:53:06.216Z,5.79
2022-10-07T03:56:08.270Z,5.76
2022-10-07T03:59:11.883Z,5.76
2022-10-07T04:02:13.726Z,5.72
2022-10-07T04:05:17.119Z,5.72
2022-10-07T04:08:19.736Z,5.64
2022-10-07T04:11:25.040Z,5.67
2022-10-07T04:14:29.587Z,5.58
2022-10-07T04:17:31.871Z,5.54
2022-10-07T04:20:37.936Z,5.54
2022-10-07T04:23:41.331Z,5.43
2022-10-07T04:26:43.846Z,5.38
2022-10-07T04:29:45.812Z,5.32
2022-10-07T04:32:50.760Z,5.32
2022-10-07T04:35:55.130Z,5.28
2022-10-07T04:38:57.610Z,5.28
2022-10-07T04:42:03.706Z,5.26
2022-10-07T04:45:07.663Z,5.26
2022-10-07T04:48:10.217Z,5.24
2022-10-07T04:51:13.243Z,5.23
2022-10-07T04:54:17.208Z,5.24
2022-10-07T04:57:23.674Z,5.24
2022-10-07T05:00:26.595Z,5.23
2022-10-07T05:03:29.441Z,5.28
2022-10-07T05:06:32.800Z,5.27
2022-10-07T05:09:34.788Z,5.28
2022-10-07T05:12:36.939Z,5.34
2022-10-07T05:15:47.855Z,5.43
2022-10-07T05:18:50.689Z,5.42
2022-10-07T05:21:53.738Z,5.44
2022-10-07T05:24:55.514Z,5.49
2022-10-07T05:27:57.567Z,5.55
2022-10-07T05:31:05.776Z,5.58
2022-10-07T05:34:08.345Z,5.54
2022-10-07T05:37:12.216Z,5.64
2022-10-07T05:40:14.124Z,5.69
2022-10-07T05:43:15.931Z,5.78
2022-10-07T05:46:23.856Z,5.93
2022-10-07T05:49:30.722Z,6.09
2022-10-07T05:52:37.072Z,6.25
2022-10-07T05:55:41.873Z,6.45
2022-10-07T05:58:44.712Z,6.67
2022-10-07T06:01:46.979Z,6.99
2022-10-07T06:04:55.413Z,7.21
2022-10-07T06:07:57.583Z,7.42
2022-10-07T06:11:23.144Z,7.64
2022-10-07T06:14:26.147Z,7.78
2022-10-07T06:17:27.902Z,7.90
2022-10-07T06:20:33.012Z,8.07
2022-10-07T06:23:35.458Z,8.25
2022-10-07T06:26:37.361Z,8.45
2022-10-07T06:29:39.162Z,8.58
2022-10-07T06:32:41.319Z,8.72
2022-10-07T06:35:43.540Z,8.86
2022-10-07T06:38:48.359Z,8.99
2022-10-07T06:41:54.531Z,9.14
2022-10-07T06:45:16.625Z,9.23
2022-10-07T06:48:19.314Z,9.37
2022-10-07T06:51:22.172Z,9.51
2022-10-07T06:54:25.478Z,9.57
2022-10-07T06:57:44.748Z,9.65
2022-10-07T07:00:50.296Z,9.88
2022-10-07T07:03:52.319Z,9.95
2022-10-07T07:06:54.086Z,9.91
2022-10-07T07:09:56.731Z,9.89
2022-10-07T07:12:58.590Z,9.91
2022-10-07T07:16:00.519Z,9.85
2022-10-07T07:19:08.708Z,10.06
2022-10-07T07:22:11.862Z,10.06
2022-10-07T07:25:15.853Z,10.31
2022-10-07T07:28:18.925Z,10.18
2022-10-07T07:31:21.736Z,10.20
2022-10-07T07:34:23.812Z,10.24
2022-10-07T07:37:26.741Z,10.11
2022-10-07T07:40:30.756Z,10.35
2022-10-07T07:43:33.433Z,10.45
2022-10-07T07:46:43.184Z,10.36
2022-10-07T07:49:46.185Z,10.38
2022-10-07T07:52:57.512Z,10.38
2022-10-07T07:55:59.471Z,10.51
2022-10-07T07:59:04.042Z,10.33
2022-10-07T08:02:07.971Z,10.45
2022-10-07T08:05:12.509Z,10.42
2022-10-07T08:08:14.883Z,10.65
2022-10-07T08:11:20.338Z,10.47
2022-10-07T08:14:23.607Z,10.55
2022-10-07T08:17:27.549Z,10.65
2022-10-07T08:20:29.327Z,10.57
2022-10-07T08:23:32.199Z,10.84
2022-10-07T08:26:37.216Z,10.62
2022-10-07T08:29:41.601Z,10.76
2022-10-07T08:32:45.233Z,10.78
2022-10-07T08:35:59.630Z,10.78
2022-10-07T08:39:02.606Z,10.95
2022-10-07T08:42:13.509Z,11.13
2022-10-07T08:45:31.837Z,10.96
2022-10-07T08:48:38.893Z,11.00
2022-10-07T08:51:50.385Z,11.15
2022-10-07T08:54:53.193Z,11.29
2022-10-07T08:58:18.607Z,11.24
2022-10-07T09:01:40.012Z,11.27
2022-10-07T09:04:47.759Z,11.17
2022-10-07T09:07:58.071Z,11.11
2022-10-07T09:11:15.920Z,11.32
2022-10-07T09:14:27.973Z,11.45
2022-10-07T09:17:35.907Z,11.55
2022-10-07T09:20:43.195Z,11.73
2022-10-07T09:23:46.441Z,11.72
2022-10-07T09:26:48.270Z,11.65
2022-10-07T09:29:51.446Z,11.84
2022-10-07T09:32:54.863Z,12.13
2022-10-07T09:36:04.310Z,12.33
2022-10-07T09:39:24.397Z,12.28
2022-10-07T09:42:32.049Z,12.37
2022-10-07T09:45:35.023Z,12.15
2022-10-07T09:48:36.860Z,12.45
2022-10-07T09:51:39.691Z,12.71
2022-10-07T09:54:43.779Z,12.86
2022-10-07T09:58:00.310Z,12.87
2022-10-07T10:01:10.568Z,13.01
2022-10-07T10:04:17.349Z,13.11
2022-10-07T10:07:24.843Z,13.25
2022-10-07T10:10:36.903Z,13.44
2022-10-07T10:13:43.505Z,13.43
2022-10-07T10:16:46.924Z,13.67
2022-10-07T10:19:48.752Z,13.77
2022-10-07T10:22:51.614Z,13.81
2022-10-07T10:26:32.739Z,13.89
2022-10-07T10:29:50.565Z,14.13
2022-10-07T10:33:04.569Z,14.18
2022-10-07T10:36:20.854Z,14.27
2022-10-07T10:39:47.587Z,14.35
2022-10-07T10:43:12.537Z,14.36
2022-10-07T10:46:32.762Z,14.64
2022-10-07T10:50:04.300Z,14.58
2022-10-07T10:53:34.426Z,14.57
2022-10-07T10:57:01.803Z,14.95
2022-10-07T11:00:05.367Z,14.85
2022-10-07T11:03:32.734Z,14.58
2022-10-07T11:06:38.308Z,14.53
2022-10-07T11:09:45.680Z,14.74
2022-10-07T11:12:58.227Z,14.66
2022-10-07T11:16:17.506Z,14.78
2022-10-07T11:19:35.811Z,14.78
2022-10-07T11:22:45.089Z,14.95
2022-10-07T11:25:57.433Z,15.00
2022-10-07T11:29:10.270Z,14.95
2022-10-07T11:32:50.119Z,15.23
2022-10-07T11:36:09.290Z,15.41
2022-10-07T11:39:11.196Z,15.41
2022-10-07T11:42:40.462Z,15.53
2022-10-07T11:45:49.956Z,15.67
2022-10-07T11:49:04.096Z,15.88
2022-10-07T11:52:19.628Z,15.82
2022-10-07T11:55:43.305Z,16.04
2022-10-07T11:58:45.951Z,16.21
2022-10-07T12:01:52.383Z,16.35
2022-10-07T12:04:55.145Z,16.38
2022-10-07T12:08:00.367Z,16.39
2022-10-07T12:11:22.923Z,16.70
2022-10-07T12:14:33.809Z,16.63
2022-10-07T12:17:35.863Z,16.56
2022-10-07T12:20:46.516Z,16.59
2022-10-07T12:23:48.809Z,16.51
2022-10-07T12:27:18.017Z,16.72
2022-10-07T12:30:40.131Z,16.72
2022-10-07T12:33:44.609Z,16.91
2022-10-07T12:36:46.328Z,16.72
2022-10-07T12:39:48.735Z,16.89
2022-10-07T12:43:10.400Z,16.95
2022-10-07T12:46:17.245Z,16.87
2022-10-07T12:49:40.931Z,16.89
2022-10-07T12:52:53.012Z,16.96
2022-10-07T12:55:56.734Z,16.94
2022-10-07T12:59:36.206Z,16.81
2022-10-07T13:03:08.908Z,16.92
2022-10-07T13:06:31.707Z,16.78
2022-10-07T13:09:55.595Z,16.79
2022-10-07T13:13:07.565Z,16.96
2022-10-07T13:16:19.294Z,16.96
2022-10-07T13:19:43.589Z,16.88
2022-10-07T13:22:49.705Z,16.79
2022-10-07T13:25:53.216Z,16.88
2022-10-07T13:28:58.024Z,16.79
2022-10-07T13:32:14.436Z,16.92
2022-10-07T13:35:36.181Z,16.86
2022-10-07T13:38:39.584Z,16.77
2022-10-07T13:41:47.655Z,16.83
2022-10-07T13:44:49.506Z,16.86
2022-10-07T13:47:51.644Z,16.92
2022-10-07T13:50:57.108Z,16.76
2022-10-07T13:54:01.106Z,16.88
2022-10-07T13:57:03.264Z,16.80
2022-10-07T14:00:05.613Z,16.81
2022-10-07T14:03:16.094Z,16.68
2022-10-07T14:06:37.092Z,16.71
2022-10-07T14:09:48.228Z,16.67
2022-10-07T14:12:55.368Z,16.68
2022-10-07T14:15:59.247Z,16.67
2022-10-07T14:19:01.052Z,16.55
2022-10-07T14:22:13.614Z,16.50
2022-10-07T14:25:27.881Z,16.54
2022-10-07T14:28:29.724Z,16.51
2022-10-07T14:31:50.377Z,16.40
2022-10-07T14:35:30.424Z,16.42
2022-10-07T14:38:32.148Z,16.34
2022-10-07T14:41:33.867Z,16.19
2022-10-07T14:44:36.027Z,16.25
2022-10-07T14:47:41.424Z,16.20
2022-10-07T14:50:43.136Z,16.09
2022-10-07T14:53:49.145Z,16.03
2022-10-07T14:56:51.244Z,15.97
2022-10-07T14:59:53.703Z,15.91
2022-10-07T15:02:58.174Z,15.87
2022-10-07T15:05:59.865Z,15.73
2022-10-07T15:09:01.624Z,15.78
2022-10-07T15:12:04.708Z,15.69
2022-10-07T15:15:06.999Z,15.68
2022-10-07T15:18:11.570Z,15.60
2022-10-07T15:21:13.349Z,15.46
2022-10-07T15:24:15.048Z,15.49
2022-10-07T15:27:19.395Z,15.38
2022-10-07T15:30:21.146Z,15.34
2022-10-07T15:33:23.109Z,15.28
2022-10-07T15:36:29.186Z,15.26
2022-10-07T15:39:30.989Z,15.08
2022-10-07T15:42:32.756Z,15.06
2022-10-07T15:45:34.836Z,14.96
2022-10-07T15:48:36.797Z,14.80
2022-10-07T15:51:38.966Z,14.71
2022-10-07T15:54:40.945Z,14.67
2022-10-07T15:57:42.901Z,14.52
2022-10-07T16:01:06.437Z,14.51
2022-10-07T16:04:12.262Z,14.38
2022-10-07T16:07:15.043Z,14.30
2022-10-07T16:10:16.934Z,14.20
2022-10-07T16:13:18.687Z,14.12
2022-10-07T16:16:23.409Z,14.06
2022-10-07T16:19:26.016Z,13.90
2022-10-07T16:22:27.683Z,13.86
2022-10-07T16:25:29.537Z,13.78
2022-10-07T16:28:51.128Z,13.70
2022-10-07T16:31:58.210Z,13.57
2022-10-07T16:35:00.422Z,13.49
2022-10-07T16:38:04.204Z,13.45
2022-10-07T16:41:07.032Z,13.41
2022-10-07T16:44:09.168Z,13.35
2022-10-07T16:47:10.955Z,13.27
2022-10-07T16:50:12.781Z,13.19
2022-10-07T16:53:14.489Z,13.16
2022-10-07T16:56:17.983Z,13.14
2022-10-07T16:59:23.848Z,13.09
2022-10-07T17:02:25.741Z,13.09
2022-10-07T17:05:27.460Z,12.91
2022-10-07T17:08:29.493Z,12.82
2022-10-07T17:11:36.323Z,12.76
2022-10-07T17:14:38.945Z,12.67
2022-10-07T17:17:40.914Z,12.59
2022-10-07T17:20:48.732Z,12.56
2022-10-07T17:23:50.766Z,12.51
2022-10-07T17:26:53.179Z,12.47
2022-10-07T17:29:55.504Z,12.43
2022-10-07T17:32:57.617Z,12.37
2022-10-07T17:36:07.210Z,12.39
2022-10-07T17:39:09.130Z,12.33
2022-10-07T17:42:10.892Z,12.33
2022-10-07T17:45:12.730Z,12.37
2022-10-07T17:48:14.436Z,12.36
2022-10-07T17:51:18.531Z,12.31
2022-10-07T17:54:20.251Z,12.20
2022-10-07T17:57:22.987Z,12.21
2022-10-07T18:00:24.846Z,12.15
2022-10-07T18:03:26.536Z,12.09
2022-10-07T18:06:36.135Z,12.08
2022-10-07T18:09:39.420Z,12.05
2022-10-07T18:12:59.462Z,12.01
2022-10-07T18:16:03.607Z,11.97
2022-10-07T18:19:05.372Z,11.91
2022-10-07T18:22:07.587Z,11.82
2022-10-07T18:25:10.434Z,11.76
2022-10-07T18:28:13.425Z,11.74
2022-10-07T18:31:17.851Z,11.72
2022-10-07T18:34:19.808Z,11.65
2022-10-07T18:37:22.946Z,11.64
2022-10-07T18:40:24.824Z,11.61
2022-10-07T18:43:26.749Z,11.61
2022-10-07T18:46:28.469Z,11.51
2022-10-07T18:49:30.289Z,11.51
2022-10-07T18:52:32.079Z,11.48
2022-10-07T18:55:39.196Z,11.52
2022-10-07T18:58:43.665Z,11.48
2022-10-07T19:01:50.110Z,11.43
2022-10-07T19:04:53.308Z,11.38
2022-10-07T19:07:54.999Z,11.39
2022-10-07T19:10:56.693Z,11.38
2022-10-07T19:13:59.376Z,11.44
2022-10-07T19:17:01.298Z,11.41
2022-10-07T19:20:04.914Z,11.41
2022-10-07T19:23:09.723Z,11.36
2022-10-07T19:26:12.751Z,11.33
2022-10-07T19:29:16.633Z,11.37
2022-10-07T19:32:18.345Z,11.35
2022-10-07T19:35:20.012Z,11.28
2022-10-07T19:38:24.466Z,11.25
2022-10-07T19:41:30.541Z,11.21
2022-10-07T19:44:33.610Z,11.18
2022-10-07T19:47:35.551Z,11.18
2022-10-07T19:50:37.482Z,11.16
2022-10-07T19:53:46.611Z,11.08
2022-10-07T19:56:49.453Z,10.99
2022-10-07T19:59:51.149Z,10.97
2022-10-07T20:02:57.416Z,10.91
2022-10-07T20:06:00.220Z,10.98
2022-10-07T20:09:02.298Z,10.85
2022-10-07T20:12:04.827Z,10.83
2022-10-07T20:15:07.680Z,10.81
2022-10-07T20:18:09.943Z,10.80
2022-10-07T20:21:16.094Z,10.83
2022-10-07T20:24:17.940Z,10.78
2022-10-07T20:27:20.037Z,10.76
2022-10-07T20:30:21.957Z,10.78
2022-10-07T20:33:23.669Z,10.78
2022-10-07T20:36:33.659Z,10.80
2022-10-07T20:39:53.620Z,10.78
2022-10-07T20:42:55.691Z,10.75
2022-10-07T20:49:30.074Z,10.64
2022-10-07T20:52:35.641Z,10.64
2022-10-07T20:55:37.456Z,10.59
2022-10-07T20:58:39.239Z,10.59
2022-10-07T21:01:42.482Z,10.55
2022-10-07T21:04:46.886Z,10.49
2022-10-07T21:07:53.781Z,10.53
2022-10-07T21:11:03.552Z,10.55
2022-10-07T21:14:05.482Z,10.51
2022-10-07T21:17:07.960Z,10.49
2022-10-07T21:20:09.811Z,10.47
2022-10-07T21:23:11.456Z,10.49
2022-10-07T21:26:13.562Z,10.59
2022-10-07T21:29:16.643Z,10.66
2022-10-07T21:32:18.747Z,10.61
2022-10-07T21:35:20.407Z,10.60
2022-10-07T21:38:22.131Z,10.56
2022-10-07T21:41:34.218Z,10.58
2022-10-07T21:44:35.937Z,10.48
2022-10-07T21:47:38.235Z,10.46
2022-10-07T21:50:40.083Z,10.43
2022-10-07T21:53:41.797Z,10.42
2022-10-07T21:56:46.265Z,10.47
2022-10-07T21:59:48.104Z,10.48
2022-10-07T22:02:50.451Z,10.37
2022-10-07T22:05:52.469Z,10.31
2022-10-07T22:08:56.401Z,10.22
2022-10-07T22:11:58.542Z,10.27
2022-10-07T22:15:00.674Z,10.30
2022-10-07T22:18:04.165Z,10.24
2022-10-07T22:21:26.095Z,10.30
2022-10-07T22:24:27.848Z,10.21
2022-10-07T22:27:29.507Z,10.20
2022-10-07T22:30:31.180Z,10.15
2022-10-07T22:33:37.422Z,10.21
2022-10-07T22:36:39.530Z,10.17
2022-10-07T22:39:41.527Z,10.14
2022-10-07T22:42:46.477Z,10.11
2022-10-07T22:45:59.011Z,10.08
2022-10-07T22:49:00.761Z,9.95
2022-10-07T22:52:02.503Z,9.97
2022-10-07T22:55:06.181Z,9.94
2022-10-07T22:58:08.051Z,9.89
2022-10-07T23:01:12.665Z,9.90
2022-10-07T23:04:14.508Z,9.79
2022-10-07T23:07:16.681Z,9.84
2022-10-07T23:10:18.532Z,9.79
2022-10-07T23:13:20.242Z,9.78
2022-10-07T23:16:24.360Z,9.70
2022-10-07T23:19:26.159Z,9.64
2022-10-07T23:22:27.849Z,9.61
2022-10-07T23:25:29.794Z,9.55
2022-10-07T23:28:33.856Z,9.52
2022-10-07T23:31:35.816Z,9.39
2022-10-07T23:34:37.559Z,9.24
2022-10-07T23:37:39.432Z,9.11
2022-10-07T23:40:41.196Z,9.01
2022-10-07T23:43:42.987Z,8.91
2022-10-07T23:46:44.950Z,8.82
2022-10-07T23:49:46.765Z,8.71
2022-10-07T23:52:49.186Z,8.64
2022-10-07T23:55:53.151Z,8.57
2022-10-07T23:58:54.989Z,8.45
